Washington, DC (20395)

3:07 AM EDT on July 01, 2015 (GMT -0400)
Capitol Hill, Washington, DC USA | | Change Station
CLOSE
Current Station
Personal Weather Station
Location: Washington, DC
Elevation: 92 ft
Nearby Weather Stations

Elev 92 ft 38.89 °N, 76.99 °W | Updated 13 minutes ago

Rain
Rain
65.2 °F
Feels Like 65.2 °F
N
0.0
Wind Variable Wind from SW

Today
High -- | Low -- °F
--% Chance of Precip.
Yesterday
High -- | Low -- °F
Precip. -- in
5:46 AM 8:37 PM
Waxing Gibbous, 99% visible
Pressure 29.82 in
Visibility 8.0 miles
Clouds Few 3000 ft
Scattered Clouds 5000 ft
Overcast 11000 ft
Dew Point 65 °F
Humidity 100%
Rainfall 1.03 in
Snow Depth Not available.
UV 0 out of 12
Pollen 4.20 out of 12
Air Quality Not available.
Flu Activity Not available.
METAR KDCA 010652Z 16003KT 8SM -RA FEW030 SCT050 OVC110 21/18 A2982 RMK AO2 TSE08 SLP097 P0008 T02060183

More Conditions Fewer Conditions

Pressure 29.82 in
Visibility 8.0 miles
Clouds Few 3000 ft
Scattered Clouds 5000 ft
Overcast 11000 ft
Dew Point 65 °F
Humidity 100%
Rainfall 1.03 in
Snow Depth Not available.
UV 0 out of 12
Pollen 4.20 out of 12
Air Quality Not available.
Flu Activity Not available.
METAR KDCA 010652Z 16003KT 8SM -RA FEW030 SCT050 OVC110 21/18 A2982 RMK AO2 TSE08 SLP097 P0008 T02060183

More Conditions Fewer Conditions

10-Day Weather Forecast

×

Almanac

Astronomy

Jul. 01, 2015 Rise Set
Actual Time
Civil Twilight
Nautical Twilight
Astronomical Twilight
Moon
Length of Visible Light
Length of Day
Tomorrow will be .
, % of the Moon is Illuminated

Today's Extremes

State Highs State Lows

Community

WunderPhotos

Upload Photos

1,834,163 photos uploaded!

WunderBlogs® & News

Nearby

Air Quality

  Air Quality AQ Index Pollutant
Not available.

Snow Depth

Station Depth Elevation

Earthquake Activity

City Distance Mag. Time & Date
Minimum magnitude displayed is 2.5.

Coastal Water Temperatures

Place Temperature

Stations

Nearby Weather Stations

Station Location Temp. Windchill Dew Point Humidity Wind Precip. Elev Updated Type